Time;durP1;ratioP1;P1;durP2;ratioP2;P2;SDS_P1;SDS_P2;PMS_P1;PMS_P2;Temp;Humidity;BMP_temperature;BMP_pressure;BME280_temperature;BME280_humidity;BME280_pressure;Samples;Min_cycle;Max_cycle;Signal;HPM_P1;HPM_P2
2022/05/03 00:00:50;;;;;;;37.28;34.05;;;10.60;99.90;;;;;;4985334;28;20096;-76
2022/05/03 00:03:44;;;;;;;38.28;34.88;;;10.60;99.90;;;;;;4985018;28;20069;-75
2022/05/03 00:06:33;;;;;;;39.17;35.40;;;10.50;99.90;;;;;;4985530;28;20046;-77
2022/05/03 00:09:06;;;;;;;37.88;34.67;;;10.50;99.90;;;;;;4968414;28;20560;-76
2022/05/03 00:11:50;;;;;;;38.92;35.50;;;10.40;99.90;;;;;;5011429;28;20041;-76
2022/05/03 00:14:25;;;;;;;36.60;33.33;;;10.50;99.90;;;;;;4993785;28;20057;-77
2022/05/03 00:16:53;;;;;;;38.35;34.95;;;10.40;99.90;;;;;;4986860;28;20288;-76
2022/05/03 00:19:20;;;;;;;37.65;34.33;;;10.40;99.90;;;;;;4987141;28;20552;-77
2022/05/03 00:21:47;;;;;;;37.17;33.95;;;10.40;99.90;;;;;;4971089;28;20454;-75
2022/05/03 00:24:16;;;;;;;35.22;32.03;;;10.40;99.90;;;;;;5005029;28;20054;-77
2022/05/03 00:26:43;;;;;;;36.33;33.03;;;10.20;99.90;;;;;;5003160;28;20046;-76
2022/05/03 00:29:11;;;;;;;36.83;33.65;;;10.20;99.90;;;;;;4987359;28;20052;-75
2022/05/03 00:31:38;;;;;;;36.20;33.25;;;10.20;99.90;;;;;;4985946;28;20050;-77
2022/05/03 00:34:07;;;;;;;35.15;32.03;;;10.20;99.90;;;;;;4985901;28;20468;-77
2022/05/03 00:36:34;;;;;;;37.28;34.13;;;10.20;99.90;;;;;;5001892;28;20511;-77
2022/05/03 00:39:00;;;;;;;37.78;34.42;;;10.20;99.90;;;;;;4987280;28;20049;-77
2022/05/03 00:42:03;;;;;;;37.40;34.20;;;10.20;99.90;;;;;;4993123;28;20084;-75
2022/05/03 00:45:00;;;;;;;37.15;33.60;;;10.20;99.90;;;;;;5002285;28;20117;-75
2022/05/03 00:48:06;;;;;;;37.40;34.13;;;10.20;99.90;;;;;;4984725;28;20050;-75
2022/05/03 00:50:44;;;;;;;35.58;32.50;;;10.20;99.90;;;;;;4985134;28;20145;-76
2022/05/03 00:53:23;;;;;;;35.70;32.33;;;10.30;99.90;;;;;;5002150;28;20053;-76
2022/05/03 00:56:28;;;;;;;35.63;32.40;;;10.20;99.90;;;;;;5001572;28;20045;-76
2022/05/03 00:58:54;;;;;;;36.00;33.00;;;10.10;99.90;;;;;;4986042;28;20062;-75
2022/05/03 01:01:27;;;;;;;34.35;31.55;;;10.10;99.90;;;;;;4984259;28;20038;-75
2022/05/03 01:04:21;;;;;;;35.42;32.53;;;10.10;99.90;;;;;;4985349;28;20109;-74
2022/05/03 01:06:55;;;;;;;35.28;32.13;;;10.10;99.90;;;;;;4984144;28;20045;-75
2022/05/03 01:09:40;;;;;;;35.42;32.10;;;10.10;99.90;;;;;;5007693;28;20054;-74
2022/05/03 01:12:25;;;;;;;34.45;31.65;;;10.00;99.90;;;;;;4989722;28;20042;-75
2022/05/03 01:15:10;;;;;;;34.10;31.27;;;9.90;99.90;;;;;;4987748;28;20050;-75
2022/05/03 01:17:54;;;;;;;34.42;31.08;;;9.90;99.90;;;;;;5003283;28;20129;-74
2022/05/03 01:20:43;;;;;;;34.77;31.63;;;10.00;99.90;;;;;;4985275;28;20519;-75
2022/05/03 01:23:40;;;;;;;33.65;30.85;;;10.00;99.90;;;;;;4993908;28;20045;-75
2022/05/03 01:26:33;;;;;;;32.67;30.00;;;9.90;99.90;;;;;;4975697;28;20049;-75
2022/05/03 01:29:33;;;;;;;33.42;30.40;;;9.80;99.90;;;;;;4988211;28;20065;-75
2022/05/03 01:32:09;;;;;;;32.80;30.05;;;9.90;99.90;;;;;;4969271;28;20077;-76
2022/05/03 01:34:37;;;;;;;33.95;30.70;;;9.80;99.90;;;;;;5002988;28;20112;-76
2022/05/03 01:37:14;;;;;;;32.72;29.77;;;9.80;99.90;;;;;;4988762;28;20530;-75
2022/05/03 01:40:04;;;;;;;31.98;29.20;;;9.90;99.90;;;;;;5011368;28;20108;-76
2022/05/03 01:42:50;;;;;;;33.40;30.25;;;9.70;99.90;;;;;;4983926;28;20043;-76
2022/05/03 01:45:36;;;;;;;33.28;30.38;;;9.60;99.90;;;;;;4983599;28;20539;-76
2022/05/03 01:48:16;;;;;;;32.80;29.98;;;9.70;99.90;;;;;;4985343;28;20058;-79
2022/05/03 01:50:54;;;;;;;33.03;30.05;;;9.70;99.90;;;;;;4968626;28;20053;-76
2022/05/03 01:53:43;;;;;;;32.40;29.80;;;9.60;99.90;;;;;;4993306;28;20050;-76
2022/05/03 01:56:19;;;;;;;33.08;30.23;;;9.60;99.90;;;;;;5003907;28;20057;-77
2022/05/03 01:59:23;;;;;;;31.17;28.55;;;9.60;99.90;;;;;;4990271;28;20050;-76
2022/05/03 02:01:53;;;;;;;32.83;30.23;;;9.60;99.90;;;;;;4973028;28;20043;-76
2022/05/03 02:04:37;;;;;;;30.90;28.50;;;9.60;99.90;;;;;;5006802;28;20100;-76
2022/05/03 02:07:35;;;;;;;32.00;29.38;;;9.50;99.90;;;;;;4989165;28;20045;-76
2022/05/03 02:10:18;;;;;;;29.98;27.58;;;9.60;99.90;;;;;;5009580;28;20052;-76
2022/05/03 02:12:52;;;;;;;30.95;28.58;;;9.60;99.90;;;;;;5007538;28;20038;-76
2022/05/03 02:15:39;;;;;;;29.85;27.65;;;9.60;99.90;;;;;;5005106;28;20057;-76
2022/05/03 02:18:25;;;;;;;33.85;30.95;;;9.60;99.90;;;;;;4989240;28;20050;-75
2022/05/03 02:21:06;;;;;;;33.95;31.05;;;9.60;99.90;;;;;;4988906;28;20057;-75
2022/05/03 02:24:01;;;;;;;35.38;32.17;;;9.50;99.90;;;;;;4988856;28;20423;-77
2022/05/03 02:26:31;;;;;;;34.38;31.67;;;9.40;99.90;;;;;;4988990;28;20050;-78
2022/05/03 02:29:14;;;;;;;34.78;31.88;;;9.40;99.90;;;;;;5007076;28;20248;-77
2022/05/03 02:31:44;;;;;;;34.60;31.70;;;9.50;99.90;;;;;;4989774;28;20042;-75
2022/05/03 02:34:29;;;;;;;34.60;31.80;;;9.50;99.90;;;;;;5007589;28;20046;-75
2022/05/03 02:37:24;;;;;;;34.53;31.58;;;9.40;99.90;;;;;;4989018;28;20054;-76
2022/05/03 02:40:00;;;;;;;34.20;31.38;;;9.30;99.90;;;;;;5014742;28;20034;-77
2022/05/03 02:42:27;;;;;;;35.13;32.13;;;9.20;99.90;;;;;;4985647;28;20115;-77
2022/05/03 02:45:00;;;;;;;35.50;32.40;;;9.20;99.90;;;;;;4986162;28;20142;-75
2022/05/03 02:48:21;;;;;;;35.35;32.10;;;9.20;99.90;;;;;;4981618;28;20045;-76
2022/05/03 02:50:53;;;;;;;34.92;31.92;;;9.10;99.90;;;;;;4962573;28;20070;-76
2022/05/03 02:53:32;;;;;;;33.08;30.23;;;9.10;99.90;;;;;;4999006;28;20060;-76
2022/05/03 02:56:22;;;;;;;33.97;31.05;;;9.00;99.90;;;;;;4973073;28;20053;-75
2022/05/03 03:01:47;;;;;;;32.35;29.65;;;8.70;99.90;;;;;;4989105;28;20462;-77
2022/05/03 03:02:20;;;;;;;32.97;30.20;;;8.70;99.90;;;;;;4987822;28;20132;-75
2022/05/03 03:04:56;;;;;;;33.88;31.08;;;8.70;99.90;;;;;;4985838;28;20061;-77
2022/05/03 03:07:25;;;;;;;34.58;31.38;;;8.70;99.90;;;;;;4986947;28;20050;-77
2022/05/03 03:10:06;;;;;;;36.13;33.03;;;8.70;99.90;;;;;;4989606;28;20053;-78
2022/05/03 03:12:40;;;;;;;34.38;31.08;;;8.70;99.90;;;;;;4983345;28;20045;-77
2022/05/03 03:15:09;;;;;;;34.65;31.23;;;8.60;99.90;;;;;;4989530;28;20431;-77
2022/05/03 03:20:59;;;;;;;32.88;30.13;;;8.30;99.90;;;;;;5006540;28;20065;-76
2022/05/03 03:23:30;;;;;;;33.55;30.40;;;8.20;99.90;;;;;;4989226;28;20052;-77
2022/05/03 03:25:58;;;;;;;32.80;29.90;;;8.20;99.90;;;;;;5040441;23;20401;-69
2022/05/03 03:28:29;;;;;;;30.60;28.05;;;8.00;99.90;;;;;;5016917;28;20130;-68
2022/05/03 03:31:00;;;;;;;31.58;28.90;;;7.90;99.90;;;;;;5014859;28;20045;-69
2022/05/03 03:33:32;;;;;;;32.95;29.75;;;7.80;99.90;;;;;;5014617;28;20057;-68
2022/05/03 03:36:03;;;;;;;32.20;29.23;;;7.70;99.90;;;;;;4996999;28;20050;-68
2022/05/03 03:38:43;;;;;;;29.50;27.00;;;7.70;99.90;;;;;;4999274;28;20095;-69
2022/05/03 03:41:10;;;;;;;32.00;29.08;;;7.70;99.90;;;;;;5001467;28;20045;-69
2022/05/03 03:43:37;;;;;;;33.13;30.23;;;7.50;99.90;;;;;;5031548;28;20038;-68
2022/05/03 03:46:04;;;;;;;30.95;28.02;;;7.50;99.90;;;;;;5017723;28;20045;-69
2022/05/03 03:48:32;;;;;;;31.77;28.70;;;7.40;99.90;;;;;;4979251;28;20417;-68
2022/05/03 03:51:00;;;;;;;30.88;27.98;;;7.30;99.90;;;;;;5029397;28;20053;-68
2022/05/03 03:53:27;;;;;;;28.83;26.35;;;7.40;99.90;;;;;;5015801;28;20546;-68
2022/05/03 03:55:54;;;;;;;29.70;26.90;;;7.30;99.90;;;;;;5017468;28;20075;-68
2022/05/03 03:58:22;;;;;;;28.05;25.35;;;7.20;99.90;;;;;;5015977;28;20073;-69
2022/05/03 04:00:49;;;;;;;28.02;25.52;;;7.20;99.90;;;;;;5034487;28;20068;-68
2022/05/03 04:03:17;;;;;;;27.45;25.00;;;7.10;99.90;;;;;;5034139;28;20278;-68
2022/05/03 04:05:46;;;;;;;27.27;24.73;;;7.10;99.90;;;;;;5016260;28;20103;-68
2022/05/03 04:08:19;;;;;;;29.58;26.85;;;7.00;99.90;;;;;;5014350;28;20066;-69
2022/05/03 04:10:48;;;;;;;28.92;26.23;;;6.90;99.90;;;;;;5000197;28;20543;-69
2022/05/03 04:13:15;;;;;;;30.15;27.35;;;6.80;99.90;;;;;;5026403;28;20364;-68
2022/05/03 04:15:42;;;;;;;29.88;27.05;;;6.80;99.90;;;;;;4997298;28;20310;-68
2022/05/03 04:18:08;;;;;;;30.58;27.77;;;6.80;99.90;;;;;;5013074;28;20067;-67
2022/05/03 04:20:35;;;;;;;30.05;27.02;;;6.80;99.90;;;;;;5014527;28;20059;-67
2022/05/03 04:23:02;;;;;;;29.95;27.17;;;6.80;99.90;;;;;;5015705;28;20092;-68
2022/05/03 04:25:29;;;;;;;30.42;27.73;;;6.90;99.90;;;;;;4995255;28;20048;-67
2022/05/03 04:27:56;;;;;;;29.95;27.23;;;6.80;99.90;;;;;;4996822;28;20055;-66
2022/05/03 04:30:23;;;;;;;30.83;27.95;;;6.70;99.90;;;;;;4995969;28;20144;-67
2022/05/03 04:32:50;;;;;;;30.95;28.15;;;6.60;99.90;;;;;;5021030;28;20432;-67
2022/05/03 04:35:17;;;;;;;29.55;27.05;;;6.60;99.90;;;;;;5033208;28;20055;-67
2022/05/03 04:37:43;;;;;;;29.45;26.85;;;6.70;99.90;;;;;;5016024;28;20049;-66
2022/05/03 04:40:11;;;;;;;29.60;27.00;;;6.70;99.90;;;;;;5018390;28;20509;-70
2022/05/03 04:42:44;;;;;;;29.65;26.95;;;6.80;99.90;;;;;;5002865;28;20050;-67
2022/05/03 04:45:11;;;;;;;30.75;28.00;;;6.90;99.90;;;;;;4995022;28;20104;-66
2022/05/03 04:47:38;;;;;;;30.58;27.60;;;6.90;99.90;;;;;;4993040;28;20054;-69
2022/05/03 04:50:06;;;;;;;30.13;27.30;;;6.80;99.90;;;;;;5001400;28;20413;-67
2022/05/03 04:52:33;;;;;;;28.08;25.38;;;6.90;99.90;;;;;;5016962;28;20049;-69
2022/05/03 04:54:59;;;;;;;27.08;24.52;;;7.00;99.90;;;;;;5035119;28;20048;-67
2022/05/03 04:57:26;;;;;;;27.27;24.92;;;7.00;99.90;;;;;;5018238;28;20169;-69
2022/05/03 04:59:53;;;;;;;25.77;23.85;;;7.10;99.90;;;;;;5014605;28;20052;-69
2022/05/03 05:02:20;;;;;;;28.17;25.83;;;7.20;99.90;;;;;;5015228;28;20071;-65
2022/05/03 05:04:47;;;;;;;27.77;25.42;;;7.10;99.90;;;;;;5016145;28;20397;-69
2022/05/03 05:07:14;;;;;;;26.85;24.55;;;7.30;99.90;;;;;;5011753;28;20178;-68
2022/05/03 05:10:23;;;;;;;27.23;24.67;;;7.40;99.90;;;;;;5013975;28;20072;-67
2022/05/03 05:12:30;;;;;;;24.25;22.10;;;7.30;99.90;;;;;;5011431;28;20044;-67
2022/05/03 05:14:57;;;;;;;27.98;25.35;;;7.40;99.90;;;;;;5013261;28;20501;-67
2022/05/03 05:17:24;;;;;;;27.83;25.70;;;7.60;99.90;;;;;;4996297;28;20045;-68
2022/05/03 05:19:50;;;;;;;27.67;24.85;;;7.50;99.90;;;;;;4996540;28;20289;-67
2022/05/03 05:22:18;;;;;;;27.27;24.98;;;7.60;99.90;;;;;;5014688;28;20290;-68
2022/05/03 05:24:45;;;;;;;28.45;25.98;;;7.60;99.90;;;;;;4998446;28;20049;-69
2022/05/03 05:27:12;;;;;;;27.00;24.67;;;7.60;99.90;;;;;;5018759;28;20075;-68
2022/05/03 05:29:39;;;;;;;25.60;23.67;;;7.70;99.90;;;;;;5042732;28;20460;-67
2022/05/03 05:32:07;;;;;;;27.83;25.75;;;7.80;99.90;;;;;;5038095;28;20181;-67
2022/05/03 05:34:34;;;;;;;27.33;25.13;;;7.90;99.90;;;;;;5031398;28;20573;-67
2022/05/03 05:37:01;;;;;;;28.25;26.15;;;8.00;99.90;;;;;;5015437;28;20150;-67
2022/05/03 05:39:28;;;;;;;29.23;26.40;;;8.00;99.90;;;;;;5011002;28;20408;-68
2022/05/03 05:41:56;;;;;;;28.13;25.85;;;8.10;99.90;;;;;;5012417;28;20045;-67
2022/05/03 05:44:23;;;;;;;27.85;25.65;;;8.00;99.90;;;;;;4991801;28;20397;-68
2022/05/03 05:46:52;;;;;;;28.50;26.15;;;8.00;99.90;;;;;;5009627;28;20045;-68
2022/05/03 05:49:19;;;;;;;29.52;27.00;;;8.00;99.90;;;;;;5009389;28;20060;-67
2022/05/03 05:51:46;;;;;;;28.63;26.50;;;8.10;99.90;;;;;;5012765;28;20052;-68
2022/05/03 05:54:13;;;;;;;28.33;26.23;;;8.10;99.90;;;;;;4996906;28;20092;-67
2022/05/03 05:56:41;;;;;;;28.80;26.42;;;8.10;99.90;;;;;;5013317;28;20045;-69
2022/05/03 05:59:08;;;;;;;28.40;26.40;;;8.30;99.90;;;;;;4997936;28;20063;-67
2022/05/03 06:01:37;;;;;;;28.23;25.83;;;8.50;99.90;;;;;;5032174;28;20056;-69
2022/05/03 06:04:04;;;;;;;29.60;27.23;;;8.60;99.90;;;;;;5034689;28;20041;-68
2022/05/03 06:06:32;;;;;;;29.70;27.45;;;8.70;99.90;;;;;;5017176;28;20330;-68
2022/05/03 06:08:59;;;;;;;29.08;26.75;;;8.90;99.90;;;;;;5033452;28;20461;-69
2022/05/03 06:11:27;;;;;;;29.92;27.63;;;9.10;99.90;;;;;;5007739;28;20045;-68
2022/05/03 06:13:54;;;;;;;30.23;27.92;;;9.20;99.90;;;;;;5017668;28;20056;-68
2022/05/03 06:16:21;;;;;;;30.27;27.90;;;9.40;99.90;;;;;;5015492;28;20045;-68
2022/05/03 06:18:48;;;;;;;30.38;27.77;;;9.70;99.90;;;;;;4981634;28;20100;-68
2022/05/03 06:21:15;;;;;;;28.95;26.88;;;10.00;99.90;;;;;;5010842;28;20046;-68
2022/05/03 06:23:42;;;;;;;29.50;27.20;;;10.40;99.90;;;;;;5010653;28;20121;-68
2022/05/03 06:26:09;;;;;;;29.05;26.92;;;10.90;99.90;;;;;;5029065;28;20056;-68
2022/05/03 06:28:44;;;;;;;28.60;26.70;;;11.20;99.90;;;;;;5017156;28;20271;-68
2022/05/03 06:31:10;;;;;;;28.90;26.90;;;11.50;99.90;;;;;;5033331;28;20045;-69
2022/05/03 06:33:37;;;;;;;28.92;26.83;;;11.80;99.90;;;;;;5031460;28;20071;-68
2022/05/03 06:36:09;;;;;;;29.52;27.10;;;12.10;99.90;;;;;;5034868;28;20471;-67
2022/05/03 06:38:36;;;;;;;30.65;28.25;;;12.30;99.90;;;;;;5045552;28;20186;-69
2022/05/03 06:41:03;;;;;;;29.17;27.23;;;12.60;99.90;;;;;;5026578;28;20047;-68
2022/05/03 06:43:30;;;;;;;27.35;25.55;;;13.00;99.90;;;;;;5014597;28;20045;-67
2022/05/03 06:45:57;;;;;;;26.58;24.83;;;13.40;99.90;;;;;;5015359;28;20136;-69
2022/05/03 06:48:24;;;;;;;25.67;23.98;;;13.70;99.90;;;;;;4998456;28;20075;-67
2022/05/03 06:50:50;;;;;;;25.27;23.65;;;13.80;99.90;;;;;;5013874;28;20068;-68
2022/05/03 06:53:19;;;;;;;25.73;24.10;;;13.60;99.90;;;;;;5016273;28;20591;-69
2022/05/03 06:55:45;;;;;;;25.08;23.33;;;13.90;99.90;;;;;;5034101;28;20056;-68
2022/05/03 06:58:15;;;;;;;24.55;22.75;;;14.20;99.90;;;;;;5035882;28;20045;-68
2022/05/03 07:00:42;;;;;;;25.63;23.90;;;14.20;99.90;;;;;;5034962;28;20056;-69
2022/05/03 07:03:09;;;;;;;25.40;23.70;;;14.40;99.90;;;;;;5017265;28;20424;-69
2022/05/03 07:05:36;;;;;;;26.70;24.90;;;14.60;99.90;;;;;;5016914;28;20048;-68
2022/05/03 07:08:03;;;;;;;27.48;25.67;;;14.50;99.90;;;;;;5001284;28;20049;-69
2022/05/03 07:10:30;;;;;;;26.48;24.98;;;14.80;99.90;;;;;;5024188;28;20611;-68
2022/05/03 07:12:57;;;;;;;27.92;26.02;;;15.00;99.90;;;;;;5014571;28;20531;-67
2022/05/03 07:15:24;;;;;;;28.42;26.58;;;14.70;99.90;;;;;;5029951;28;20215;-68
2022/05/03 07:23:23;;;;;;;29.17;27.55;;;15.20;99.90;;;;;;5014101;28;20049;-69
2022/05/03 07:25:50;;;;;;;29.58;27.88;;;15.30;99.90;;;;;;5013842;28;20057;-68
2022/05/03 07:28:17;;;;;;;30.17;28.42;;;15.60;99.90;;;;;;5017545;28;20049;-67
2022/05/03 07:30:44;;;;;;;29.80;28.08;;;15.50;99.90;;;;;;5034732;28;20056;-68
2022/05/03 07:33:11;;;;;;;30.67;28.77;;;15.50;99.90;;;;;;5016271;28;20205;-68
2022/05/03 07:35:38;;;;;;;29.95;28.35;;;15.60;99.90;;;;;;4996169;28;20163;-66
2022/05/03 07:38:05;;;;;;;29.80;28.20;;;15.60;99.90;;;;;;5014949;28;20176;-69
2022/05/03 07:40:32;;;;;;;30.15;28.55;;;15.60;99.90;;;;;;5017466;28;20136;-68
2022/05/03 07:42:59;;;;;;;29.25;27.65;;;15.70;99.90;;;;;;5004044;28;20049;-68
2022/05/03 07:45:26;;;;;;;30.10;28.45;;;15.90;99.90;;;;;;5014713;28;20049;-68
2022/05/03 07:47:52;;;;;;;30.55;28.75;;;15.80;99.90;;;;;;4995284;28;20457;-68
2022/05/03 07:50:19;;;;;;;30.95;29.20;;;15.80;99.90;;;;;;5005419;28;20049;-68
2022/05/03 07:52:46;;;;;;;31.65;29.70;;;15.40;99.90;;;;;;5034145;28;20560;-68
2022/05/03 07:55:13;;;;;;;30.80;28.90;;;15.10;99.90;;;;;;5029884;28;20234;-68
2022/05/03 07:57:40;;;;;;;32.45;30.30;;;15.30;99.90;;;;;;5048079;23;20421;-71
2022/05/03 08:00:08;;;;;;;31.83;29.73;;;15.50;99.90;;;;;;5034588;28;20204;-72
2022/05/03 08:02:35;;;;;;;31.15;29.45;;;14.80;99.90;;;;;;5035280;28;20115;-71
2022/05/03 08:05:02;;;;;;;30.90;29.10;;;15.00;99.90;;;;;;5048360;28;20040;-70
2022/05/03 08:07:29;;;;;;;32.40;30.60;;;15.20;99.90;;;;;;5054845;28;20307;-69
2022/05/03 08:09:56;;;;;;;32.25;30.25;;;15.40;99.90;;;;;;5028961;28;20053;-71
2022/05/03 08:12:23;;;;;;;31.50;29.70;;;15.80;99.90;;;;;;5028612;28;20499;-71
2022/05/03 08:14:51;;;;;;;30.70;28.95;;;15.90;99.90;;;;;;5054134;28;20739;-71
2022/05/03 08:17:17;;;;;;;32.08;30.35;;;16.50;99.90;;;;;;5054214;28;20302;-72
2022/05/03 08:19:44;;;;;;;32.28;30.38;;;16.60;99.90;;;;;;5053974;28;20258;-72
2022/05/03 08:22:12;;;;;;;31.35;29.60;;;16.80;99.90;;;;;;5036666;28;20451;-70
2022/05/03 08:24:38;;;;;;;32.78;31.08;;;16.90;99.90;;;;;;5020660;28;20053;-70
2022/05/03 08:27:05;;;;;;;32.67;30.83;;;16.80;99.90;;;;;;5017735;28;20099;-70
2022/05/03 08:29:32;;;;;;;32.08;30.38;;;16.60;99.90;;;;;;5015595;28;20049;-71
2022/05/03 08:32:00;;;;;;;35.35;33.40;;;16.80;99.90;;;;;;5013325;28;20455;-70
2022/05/03 08:34:27;;;;;;;34.95;33.15;;;16.00;99.90;;;;;;5029813;28;20114;-71
2022/05/03 08:42:25;;;;;;;34.15;32.35;;;14.20;99.90;;;;;;5053272;28;19918;-71
2022/05/03 08:44:52;;;;;;;34.17;32.38;;;14.70;99.90;;;;;;5035100;28;20048;-71
2022/05/03 08:47:20;;;;;;;33.20;31.25;;;14.80;99.90;;;;;;5054823;28;20114;-69
2022/05/03 08:50:11;;;;;;;34.00;32.08;;;15.20;99.90;;;;;;5011569;28;20526;-70
2022/05/03 08:52:50;;;;;;;33.70;31.75;;;15.70;99.90;;;;;;5015877;28;20053;-70
2022/05/03 08:55:17;;;;;;;33.40;31.48;;;15.90;99.90;;;;;;5034920;28;20052;-71
2022/05/03 08:57:45;;;;;;;32.65;30.83;;;15.80;99.90;;;;;;4985600;28;20148;-73
2022/05/03 09:00:14;;;;;;;32.70;30.80;;;15.90;99.90;;;;;;5033411;28;20157;-71
2022/05/03 09:02:46;;;;;;;32.78;30.85;;;15.90;99.90;;;;;;5007087;28;20045;-72
2022/05/03 09:05:14;;;;;;;31.88;29.90;;;16.40;99.90;;;;;;4998433;28;20080;-72
2022/05/03 09:07:54;;;;;;;32.00;30.30;;;16.60;99.90;;;;;;5001547;28;20743;-71
2022/05/03 09:10:25;;;;;;;33.33;31.50;;;16.70;99.90;;;;;;5000518;28;20056;-71
2022/05/03 09:12:55;;;;;;;32.10;30.20;;;16.60;99.90;;;;;;5023783;28;20213;-72
2022/05/03 09:15:33;;;;;;;34.08;31.85;;;16.60;99.90;;;;;;5037159;28;20041;-71
2022/05/03 09:18:01;;;;;;;32.30;30.40;;;16.90;99.90;;;;;;5020252;28;20053;-71
2022/05/03 09:26:26;;;;;;;34.10;32.22;;;17.50;99.90;;;;;;5015134;28;20410;-71
2022/05/03 09:29:08;;;;;;;33.28;31.42;;;17.80;99.90;;;;;;5017262;28;20053;-72
2022/05/03 09:31:37;;;;;;;36.33;34.13;;;18.40;99.90;;;;;;5019517;28;20125;-71
2022/05/03 09:34:19;;;;;;;34.97;32.90;;;18.50;99.90;;;;;;5035064;28;20671;-71
2022/05/03 09:36:52;;;;;;;34.15;32.25;;;18.40;99.90;;;;;;5040111;28;20047;-72
2022/05/03 09:39:33;;;;;;;32.92;31.13;;;17.40;99.90;;;;;;5026636;28;20099;-72
2022/05/03 09:42:04;;;;;;;33.30;31.40;;;18.10;99.90;;;;;;4988966;28;20097;-72
2022/05/03 09:44:36;;;;;;;33.90;31.90;;;18.40;99.90;;;;;;5024425;28;20045;-72
2022/05/03 09:47:10;;;;;;;35.45;33.47;;;18.00;99.90;;;;;;5003951;28;20111;-72
2022/05/03 09:50:30;;;;;;;32.97;31.08;;;17.40;99.90;;;;;;5004544;28;20117;-72
2022/05/03 09:52:59;;;;;;;34.10;31.85;;;17.70;99.90;;;;;;5004866;28;20041;-74
2022/05/03 09:55:34;;;;;;;33.75;31.75;;;18.20;99.90;;;;;;5000625;28;20523;-72
2022/05/03 09:58:03;;;;;;;31.97;29.97;;;18.70;99.90;;;;;;4990662;28;20455;-72
2022/05/03 10:00:33;;;;;;;30.23;28.55;;;17.80;99.90;;;;;;5003253;28;20044;-72
2022/05/03 10:03:02;;;;;;;31.60;29.80;;;16.80;99.90;;;;;;5003086;28;20106;-72
2022/05/03 10:05:30;;;;;;;34.08;31.98;;;16.70;99.90;;;;;;5003082;28;20056;-71
2022/05/03 10:07:58;;;;;;;34.28;31.83;;;16.20;99.90;;;;;;5004260;28;20258;-71
2022/05/03 10:10:27;;;;;;;33.67;31.63;;;16.50;99.90;;;;;;5002646;28;20417;-71
2022/05/03 10:12:54;;;;;;;34.22;32.20;;;17.00;99.90;;;;;;5023719;28;20059;-71
2022/05/03 10:21:19;;;;;;;33.53;31.52;;;17.40;99.90;;;;;;4999537;28;20643;-73
2022/05/03 10:24:19;;;;;;;35.85;33.75;;;18.40;99.90;;;;;;5006700;28;20057;-72
2022/05/03 10:26:52;;;;;;;35.55;33.40;;;18.00;99.90;;;;;;5032285;28;20122;-72
2022/05/03 10:29:23;;;;;;;35.60;33.60;;;17.90;99.90;;;;;;5019310;28;20041;-72
2022/05/03 10:31:58;;;;;;;35.47;33.47;;;18.30;99.90;;;;;;5033487;28;20045;-72
2022/05/03 10:34:40;;;;;;;;;;;18.20;99.90;;;;;;4999578;28;20493;-74
2022/05/03 10:37:12;;;;;;;35.55;33.42;;;17.80;99.90;;;;;;4999458;28;19921;-74
2022/05/03 10:39:51;;;;;;;34.15;32.05;;;17.60;99.90;;;;;;5005207;28;20136;-72
2022/05/03 10:42:23;;;;;;;34.30;32.30;;;16.40;99.90;;;;;;5022204;28;20044;-71
2022/05/03 10:45:03;;;;;;;35.72;33.60;;;16.70;99.90;;;;;;5021458;28;20103;-71
2022/05/03 10:47:51;;;;;;;36.47;34.05;;;17.80;99.90;;;;;;5032557;28;20047;-72
2022/05/03 10:50:19;;;;;;;36.20;34.13;;;17.10;99.90;;;;;;4997356;28;20056;-71
2022/05/03 10:52:55;;;;;;;36.95;34.42;;;17.50;99.90;;;;;;5001019;28;20053;-72
2022/05/03 10:55:24;;;;;;;37.20;34.95;;;17.60;99.90;;;;;;5017772;28;20060;-72
2022/05/03 10:58:26;;;;;;;39.13;36.65;;;17.90;99.90;;;;;;5018522;28;20048;-72
2022/05/03 11:01:20;;;;;;;38.25;35.95;;;17.90;99.90;;;;;;5016623;28;20275;-71
2022/05/03 11:03:48;;;;;;;35.93;33.83;;;18.30;99.90;;;;;;5017787;28;20061;-71
2022/05/03 11:06:19;;;;;;;38.42;36.22;;;18.00;99.90;;;;;;5016904;28;20299;-73
2022/05/03 11:09:05;;;;;;;39.38;36.92;;;17.50;99.90;;;;;;5018035;28;20067;-72
2022/05/03 11:11:44;;;;;;;36.72;34.60;;;17.60;99.90;;;;;;5029674;28;20045;-71
2022/05/03 11:14:11;;;;;;;37.30;34.92;;;18.10;99.90;;;;;;4997314;28;20104;-71
2022/05/03 11:16:38;;;;;;;39.63;37.22;;;18.40;99.90;;;;;;5004374;28;20132;-74
2022/05/03 11:19:18;;;;;;;37.20;35.00;;;18.80;99.40;;;;;;5015769;28;20045;-72
2022/05/03 11:21:46;;;;;;;36.72;34.45;;;19.40;99.90;;;;;;5012990;28;20053;-70
2022/05/03 11:24:19;;;;;;;37.25;34.83;;;19.50;99.90;;;;;;5012746;28;20530;-72
2022/05/03 11:26:50;;;;;;;36.28;34.05;;;19.70;99.90;;;;;;5012642;28;20103;-72
2022/05/03 11:29:18;;;;;;;36.95;34.83;;;19.90;99.90;;;;;;5018151;28;20390;-74
2022/05/03 11:31:52;;;;;;;36.65;34.35;;;19.90;99.10;;;;;;5033482;28;20063;-73
2022/05/03 11:34:20;;;;;;;35.03;32.92;;;19.50;99.60;;;;;;5036762;28;20051;-73
2022/05/03 11:36:50;;;;;;;35.17;32.85;;;19.50;99.30;;;;;;5036566;28;20044;-70
2022/05/03 11:39:19;;;;;;;36.17;33.60;;;19.70;99.90;;;;;;5026865;28;20065;-72
2022/05/03 11:41:48;;;;;;;35.17;33.00;;;19.90;99.90;;;;;;5018583;28;20052;-73
2022/05/03 11:44:17;;;;;;;34.35;32.15;;;19.60;97.60;;;;;;5018543;28;20037;-74
2022/05/03 11:46:45;;;;;;;35.90;33.60;;;19.50;98.50;;;;;;5021098;28;20072;-73
2022/05/03 11:49:14;;;;;;;32.97;30.88;;;19.70;98.90;;;;;;5016063;28;20611;-71
2022/05/03 11:57:24;;;;;;;34.25;32.13;;;19.90;99.30;;;;;;5014985;28;20291;-72
2022/05/03 11:59:58;;;;;;;33.67;31.65;;;19.80;98.90;;;;;;5000864;28;20048;-72
2022/05/03 12:02:32;;;;;;;34.10;32.00;;;19.60;98.60;;;;;;4998260;28;20139;-71
2022/05/03 12:05:06;;;;;;;32.10;30.30;;;19.70;99.80;;;;;;4997809;28;20053;-71
2022/05/03 12:07:41;;;;;;;33.43;31.07;;;19.90;99.60;;;;;;5030977;28;20107;-70
2022/05/03 12:10:23;;;;;;;33.22;31.23;;;19.80;98.90;;;;;;5014281;28;20045;-70
2022/05/03 12:13:22;;;;;;;34.80;32.60;;;19.60;99.00;;;;;;5014899;28;20566;-69
2022/05/03 12:16:06;;;;;;;36.78;34.33;;;19.70;98.00;;;;;;5031224;28;20511;-68
2022/05/03 12:18:34;;;;;;;35.85;33.65;;;19.10;98.00;;;;;;5007914;28;20722;-70
2022/05/03 12:21:20;;;;;;;36.33;34.00;;;19.20;98.60;;;;;;5012063;28;20467;-71
2022/05/03 12:23:49;;;;;;;36.08;33.63;;;19.40;99.60;;;;;;5001241;28;20072;-71
2022/05/03 12:26:23;;;;;;;36.13;33.95;;;19.50;99.30;;;;;;4979487;28;20041;-69
2022/05/03 12:28:57;;;;;;;36.10;33.90;;;19.80;99.40;;;;;;4978584;28;20088;-74
2022/05/03 12:31:36;;;;;;;38.20;35.50;;;19.80;98.00;;;;;;4999902;28;20081;-71
2022/05/03 12:34:20;;;;;;;35.60;33.45;;;19.90;99.10;;;;;;5032275;28;20308;-74
2022/05/03 12:36:48;;;;;;;36.22;33.95;;;20.00;98.80;;;;;;5014279;28;20174;-73
2022/05/03 12:39:25;;;;;;;34.83;32.72;;;19.80;98.40;;;;;;5016271;28;20501;-72
2022/05/03 12:42:00;;;;;;;36.13;33.88;;;19.60;97.20;;;;;;4998932;28;20761;-71
2022/05/03 12:44:28;;;;;;;37.58;35.13;;;19.80;98.30;;;;;;5034367;28;20056;-71
2022/05/03 12:47:08;;;;;;;37.72;35.28;;;19.90;97.10;;;;;;5034992;28;20173;-73
2022/05/03 12:49:37;;;;;;;37.55;35.22;;;19.90;97.70;;;;;;5030730;28;20052;-71
2022/05/03 12:52:05;;;;;;;37.00;34.58;;;19.70;98.60;;;;;;5012288;28;20041;-70
2022/05/03 12:54:37;;;;;;;36.63;34.40;;;19.70;98.80;;;;;;4993917;28;20156;-73
2022/05/03 12:59:50;;;;;;;37.72;35.35;;;19.50;97.90;;;;;;4995797;28;20142;-71
2022/05/03 13:02:18;;;;;;;37.78;35.22;;;19.10;98.30;;;;;;5009480;28;20129;-71
2022/05/03 13:04:47;;;;;;;36.90;34.55;;;19.20;97.80;;;;;;4975130;28;20053;-71
2022/05/03 13:07:14;;;;;;;37.67;35.47;;;19.70;98.20;;;;;;4993840;28;20047;-71
2022/05/03 13:09:42;;;;;;;36.67;34.25;;;19.00;97.30;;;;;;5008934;28;20072;-70
2022/05/03 13:12:10;;;;;;;35.75;33.45;;;18.80;98.80;;;;;;5018298;28;20051;-70
2022/05/03 13:14:38;;;;;;;37.85;35.53;;;19.30;99.20;;;;;;5036719;28;20143;-71
2022/05/03 13:17:05;;;;;;;37.15;34.78;;;19.60;99.40;;;;;;5037774;28;20062;-72
2022/05/03 13:19:32;;;;;;;38.72;36.33;;;19.90;99.00;;;;;;5031278;28;20694;-70
2022/05/03 13:22:00;;;;;;;37.22;34.88;;;20.00;98.80;;;;;;5033897;28;20049;-70
2022/05/03 13:24:27;;;;;;;38.40;35.88;;;20.10;98.20;;;;;;5000324;28;20117;-72
2022/05/03 13:26:55;;;;;;;38.85;36.35;;;20.00;97.60;;;;;;5017926;28;20505;-73
2022/05/03 13:29:22;;;;;;;39.83;37.10;;;20.00;97.10;;;;;;5017274;28;20103;-73
2022/05/03 13:31:50;;;;;;;37.17;34.78;;;20.10;96.40;;;;;;5029561;28;20049;-73
2022/05/03 13:34:17;;;;;;;37.80;35.38;;;20.30;96.70;;;;;;5016885;28;20068;-73